createdAt,value
2022-09-26T00:01:35.921Z,2.83
2022-09-26T00:04:31.783Z,3.08
2022-09-26T00:07:15.265Z,2.70
2022-09-26T00:10:02.540Z,3.08
2022-09-26T00:12:50.133Z,3.12
2022-09-26T00:15:37.494Z,2.87
2022-09-26T00:18:25.324Z,3.10
2022-09-26T00:21:15.172Z,2.80
2022-09-26T00:24:03.251Z,2.95
2022-09-26T00:26:50.835Z,2.92
2022-09-26T00:29:39.224Z,2.98
2022-09-26T00:32:26.619Z,2.67
2022-09-26T00:35:14.022Z,3.20
2022-09-26T00:38:01.583Z,2.85
2022-09-26T00:40:50.503Z,2.95
2022-09-26T00:43:41.152Z,3.12
2022-09-26T00:46:43.504Z,3.55
2022-09-26T00:49:36.946Z,3.65
2022-09-26T00:52:30.176Z,3.47
2022-09-26T00:55:21.070Z,3.12
2022-09-26T00:58:14.344Z,3.72
2022-09-26T01:01:02.191Z,3.92
2022-09-26T01:03:51.032Z,4.28
2022-09-26T01:06:38.618Z,3.65
2022-09-26T01:09:28.296Z,4.00
2022-09-26T01:12:17.558Z,4.25
2022-09-26T01:15:08.481Z,4.20
2022-09-26T01:17:55.940Z,3.90
2022-09-26T01:21:01.501Z,4.37
2022-09-26T01:24:16.095Z,4.40
2022-09-26T01:27:33.813Z,3.92
2022-09-26T01:33:28.399Z,4.15
2022-09-26T01:36:18.565Z,4.30
2022-09-26T01:39:33.557Z,4.28
2022-09-26T01:42:42.184Z,4.40
2022-09-26T01:45:32.426Z,3.92
2022-09-26T01:48:34.869Z,3.65
2022-09-26T01:51:40.348Z,3.95
2022-09-26T01:54:30.601Z,4.35
2022-09-26T01:57:20.969Z,4.42
2022-09-26T02:00:12.633Z,4.20
2022-09-26T02:03:00.863Z,4.15
2022-09-26T02:05:51.230Z,4.15
2022-09-26T02:08:41.956Z,3.83
2022-09-26T02:11:29.957Z,4.08
2022-09-26T02:14:28.795Z,3.83
2022-09-26T02:17:20.167Z,4.20
2022-09-26T02:20:14.879Z,3.95
2022-09-26T02:23:05.940Z,4.33
2022-09-26T02:25:53.914Z,4.03
2022-09-26T02:28:41.874Z,4.10
2022-09-26T02:31:32.433Z,3.87
2022-09-26T02:34:19.622Z,4.05
2022-09-26T02:37:07.532Z,4.33
2022-09-26T02:39:56.200Z,3.80
2022-09-26T02:42:52.779Z,3.98
2022-09-26T02:45:52.258Z,3.70
2022-09-26T02:49:00.439Z,3.70
2022-09-26T02:51:54.385Z,3.77
2022-09-26T02:54:47.709Z,3.62
2022-09-26T02:57:53.033Z,3.42
2022-09-26T03:00:55.752Z,4.25
2022-09-26T03:03:47.094Z,3.77
2022-09-26T03:06:37.469Z,4.05
2022-09-26T03:09:26.576Z,3.47
2022-09-26T03:12:16.785Z,4.15
2022-09-26T03:15:06.740Z,3.50
2022-09-26T03:17:57.517Z,3.98
2022-09-26T03:20:44.988Z,3.55
2022-09-26T03:23:32.262Z,3.47
2022-09-26T03:26:24.300Z,3.55
2022-09-26T03:29:11.582Z,3.95
2022-09-26T03:32:01.041Z,3.02
2022-09-26T03:34:48.572Z,3.10
2022-09-26T03:37:37.249Z,4.05
2022-09-26T03:40:24.650Z,3.22
2022-09-26T03:43:12.284Z,2.95
2022-09-26T03:46:05.399Z,3.42
2022-09-26T03:48:52.886Z,3.85
2022-09-26T03:51:40.121Z,3.72
2022-09-26T03:54:27.715Z,3.85
2022-09-26T03:57:16.588Z,3.15
2022-09-26T04:00:06.432Z,4.40
2022-09-26T04:02:53.703Z,3.33
2022-09-26T04:05:41.080Z,3.35
2022-09-26T04:08:28.695Z,3.25
2022-09-26T04:11:19.489Z,3.98
2022-09-26T04:14:07.314Z,5.12
2022-09-26T04:16:54.525Z,3.72
2022-09-26T04:19:42.033Z,6.25
2022-09-26T04:22:29.580Z,7.58
2022-09-26T04:25:17.157Z,7.05
2022-09-26T04:28:04.121Z,6.62
2022-09-26T04:30:51.703Z,6.62
2022-09-26T04:33:40.077Z,8.10
2022-09-26T04:36:27.284Z,6.37
2022-09-26T04:39:14.777Z,5.45
2022-09-26T04:42:03.057Z,5.95
2022-09-26T04:44:50.594Z,4.45
2022-09-26T04:47:37.888Z,3.98
2022-09-26T04:50:25.170Z,3.72
2022-09-26T04:53:12.461Z,4.00
2022-09-26T04:55:59.658Z,5.00
2022-09-26T04:58:47.736Z,6.78
2022-09-26T05:01:35.096Z,8.00
2022-09-26T05:04:27.328Z,4.85
2022-09-26T05:07:11.214Z,3.98
2022-09-26T05:09:58.663Z,4.42
2022-09-26T05:12:46.439Z,4.28
2022-09-26T05:15:35.382Z,4.75
2022-09-26T05:18:25.326Z,5.80
2022-09-26T05:21:12.285Z,6.28
2022-09-26T05:24:17.650Z,6.45
2022-09-26T05:27:07.797Z,6.00
2022-09-26T05:29:55.772Z,5.72
2022-09-26T05:32:44.950Z,6.55
2022-09-26T05:35:34.085Z,7.58
2022-09-26T05:38:21.629Z,9.23
2022-09-26T05:41:08.968Z,9.83
2022-09-26T05:43:56.466Z,9.50
2022-09-26T05:46:43.922Z,10.28
2022-09-26T05:49:32.789Z,9.05
2022-09-26T05:52:19.927Z,10.50
2022-09-26T05:55:07.341Z,9.20
2022-09-26T05:57:58.447Z,9.08
2022-09-26T06:00:47.574Z,9.43
2022-09-26T06:03:35.620Z,10.35
2022-09-26T06:06:23.036Z,10.30
2022-09-26T06:09:10.529Z,9.98
2022-09-26T06:11:57.878Z,9.15
2022-09-26T06:14:46.674Z,9.45
2022-09-26T06:17:34.253Z,9.33
2022-09-26T06:20:22.085Z,9.23
2022-09-26T06:23:09.483Z,9.55
2022-09-26T06:25:57.103Z,9.48
2022-09-26T06:28:44.747Z,9.88
2022-09-26T06:31:32.796Z,10.70
2022-09-26T06:34:20.065Z,10.65
2022-09-26T06:37:07.781Z,11.38
2022-09-26T06:39:59.220Z,10.80
2022-09-26T06:42:45.309Z,10.72
2022-09-26T06:45:32.596Z,11.20
2022-09-26T06:48:24.675Z,10.68
2022-09-26T06:51:13.966Z,10.25
2022-09-26T06:54:01.532Z,10.35
2022-09-26T06:56:48.975Z,10.85
2022-09-26T06:59:36.476Z,10.10
2022-09-26T07:02:25.277Z,9.80
2022-09-26T07:05:15.041Z,9.63
2022-09-26T07:08:03.118Z,10.53
2022-09-26T07:10:50.575Z,9.33
2022-09-26T07:13:38.988Z,10.00
2022-09-26T07:16:27.347Z,9.68
2022-09-26T07:19:16.023Z,9.88
2022-09-26T07:22:03.561Z,10.20
2022-09-26T07:24:51.103Z,9.50
2022-09-26T07:27:40.066Z,9.60
2022-09-26T07:30:28.307Z,9.78
2022-09-26T07:33:15.598Z,9.43
2022-09-26T07:36:05.432Z,9.50
2022-09-26T07:38:52.044Z,9.53
2022-09-26T07:41:39.200Z,9.90
2022-09-26T07:45:36.534Z,9.00
2022-09-26T07:47:34.375Z,9.20
2022-09-26T07:50:21.779Z,8.73
2022-09-26T07:53:09.544Z,8.55
2022-09-26T07:56:12.546Z,8.20
2022-09-26T07:59:01.405Z,7.60
2022-09-26T08:01:49.125Z,8.33
2022-09-26T08:04:36.509Z,8.28
2022-09-26T08:07:24.509Z,8.75
2022-09-26T08:10:21.123Z,9.63
2022-09-26T08:13:08.526Z,10.15
2022-09-26T08:15:56.508Z,10.30
2022-09-26T08:18:43.717Z,11.20
2022-09-26T08:21:31.278Z,10.23
2022-09-26T08:24:18.477Z,10.43
2022-09-26T08:27:06.221Z,10.55
2022-09-26T08:29:54.094Z,8.90
2022-09-26T08:32:41.426Z,9.85
2022-09-26T08:35:31.449Z,9.25
2022-09-26T08:38:18.833Z,13.50
2022-09-26T08:41:25.111Z,14.95
2022-09-26T08:44:32.078Z,9.60
2022-09-26T08:47:25.881Z,9.28
2022-09-26T08:50:42.229Z,8.95
2022-09-26T08:53:38.337Z,8.25
2022-09-26T08:56:31.679Z,8.13
2022-09-26T08:59:30.949Z,7.80
2022-09-26T09:02:30.205Z,6.83
2022-09-26T09:05:23.913Z,7.25
2022-09-26T09:08:18.455Z,6.95
2022-09-26T09:11:25.735Z,5.83
2022-09-26T09:14:25.304Z,6.62
2022-09-26T09:17:24.375Z,5.40
2022-09-26T09:20:19.701Z,5.47
2022-09-26T09:23:13.351Z,5.12
2022-09-26T09:29:19.561Z,5.00
2022-09-26T09:32:09.396Z,4.83
2022-09-26T09:34:57.815Z,4.90
2022-09-26T09:37:51.060Z,4.75
2022-09-26T09:41:09.001Z,4.72
2022-09-26T09:46:49.256Z,3.35
2022-09-26T09:49:36.607Z,3.72
2022-09-26T09:52:40.580Z,3.90
2022-09-26T09:55:49.960Z,3.62
2022-09-26T09:58:46.430Z,3.60
2022-09-26T10:01:37.363Z,4.20
2022-09-26T10:04:30.996Z,4.80
2022-09-26T10:07:18.272Z,4.45
2022-09-26T10:10:07.616Z,3.70
2022-09-26T10:12:56.906Z,3.10
2022-09-26T10:15:47.509Z,2.85
2022-09-26T10:18:36.542Z,2.33
2022-09-26T10:21:31.469Z,1.62
2022-09-26T10:24:24.662Z,1.57
2022-09-26T10:27:27.712Z,1.55
2022-09-26T10:30:28.088Z,1.30
2022-09-26T10:33:30.785Z,1.60
2022-09-26T10:36:24.215Z,1.30
2022-09-26T10:39:38.936Z,1.60
2022-09-26T10:42:29.968Z,1.45
2022-09-26T10:45:20.419Z,1.40
2022-09-26T10:48:08.004Z,1.47
2022-09-26T10:51:01.336Z,1.82
2022-09-26T10:53:53.074Z,1.70
2022-09-26T10:56:43.891Z,1.40
2022-09-26T10:59:34.816Z,1.50
2022-09-26T11:02:28.107Z,1.72
2022-09-26T11:05:35.495Z,1.75
2022-09-26T11:08:31.241Z,1.90
2022-09-26T11:11:22.467Z,1.90
2022-09-26T11:14:10.383Z,1.77
2022-09-26T11:16:59.625Z,1.95
2022-09-26T11:19:58.693Z,2.00
2022-09-26T11:22:47.625Z,1.80
2022-09-26T11:25:39.203Z,2.08
2022-09-26T11:28:31.209Z,2.30
2022-09-26T11:31:31.212Z,2.60
2022-09-26T11:34:26.841Z,2.45
2022-09-26T11:37:17.352Z,2.67
2022-09-26T11:40:11.066Z,2.83
2022-09-26T11:43:28.820Z,4.25
2022-09-26T11:46:31.481Z,2.72
2022-09-26T11:49:30.579Z,2.50
2022-09-26T11:52:52.880Z,3.00
2022-09-26T11:55:55.175Z,3.10
2022-09-26T11:58:46.581Z,3.10
2022-09-26T12:01:49.987Z,2.65
2022-09-26T12:05:01.600Z,4.17
2022-09-26T12:08:08.482Z,3.30
2022-09-26T12:11:05.399Z,2.70
2022-09-26T12:14:28.915Z,2.05
2022-09-26T12:17:37.543Z,1.90
2022-09-26T12:20:44.798Z,1.80
2022-09-26T12:23:48.316Z,1.80
2022-09-26T12:26:54.673Z,2.30
2022-09-26T12:29:55.267Z,1.70
2022-09-26T12:32:48.677Z,1.55
2022-09-26T12:35:43.927Z,1.95
2022-09-26T12:38:52.025Z,1.62
2022-09-26T12:42:03.314Z,1.40
2022-09-26T12:45:13.361Z,1.60
2022-09-26T12:48:09.375Z,1.27
2022-09-26T12:51:08.860Z,1.32
2022-09-26T12:54:33.069Z,1.82
2022-09-26T12:57:37.194Z,1.52
2022-09-26T13:00:25.269Z,1.20
2022-09-26T13:03:18.391Z,1.47
2022-09-26T13:06:27.347Z,1.50
2022-09-26T13:09:44.555Z,1.32
2022-09-26T13:12:47.004Z,1.30
2022-09-26T13:15:37.478Z,1.60
2022-09-26T13:18:35.703Z,1.40
2022-09-26T13:21:26.010Z,1.62
2022-09-26T13:24:29.855Z,1.75
2022-09-26T13:27:21.055Z,1.62
2022-09-26T13:30:15.582Z,1.65
2022-09-26T13:33:21.094Z,1.77
2022-09-26T13:36:10.588Z,1.45
2022-09-26T13:39:27.998Z,1.45
2022-09-26T13:42:18.174Z,2.97
2022-09-26T13:45:11.611Z,3.17
2022-09-26T13:48:08.256Z,2.50
2022-09-26T13:50:58.632Z,2.60
2022-09-26T13:53:50.126Z,2.15
2022-09-26T13:56:41.111Z,2.50
2022-09-26T13:59:34.644Z,2.02
2022-09-26T14:02:29.658Z,2.40
2022-09-26T14:05:44.958Z,2.30
2022-09-26T14:08:52.727Z,2.02
2022-09-26T14:14:41.716Z,1.90
2022-09-26T14:17:44.334Z,2.15
2022-09-26T14:20:34.762Z,2.10
2022-09-26T14:23:41.873Z,1.82
2022-09-26T14:26:31.345Z,2.15
2022-09-26T14:29:30.868Z,1.50
2022-09-26T14:32:21.260Z,1.55
2022-09-26T14:35:20.633Z,1.47
2022-09-26T14:38:16.989Z,1.50
2022-09-26T14:41:04.547Z,1.10
2022-09-26T14:43:52.911Z,1.42
2022-09-26T14:46:42.303Z,1.30
2022-09-26T14:49:30.061Z,1.30
2022-09-26T14:52:20.080Z,1.30
2022-09-26T14:55:08.883Z,1.20
2022-09-26T14:58:16.300Z,1.50
2022-09-26T15:01:06.147Z,1.60
2022-09-26T15:04:03.106Z,1.45
2022-09-26T15:06:53.197Z,1.20
2022-09-26T15:09:52.241Z,1.20
2022-09-26T15:12:46.002Z,1.27
2022-09-26T15:15:57.725Z,1.27
2022-09-26T15:18:51.015Z,1.82
2022-09-26T15:21:41.546Z,1.37
2022-09-26T15:24:35.395Z,1.52
2022-09-26T15:27:29.532Z,1.90
2022-09-26T15:30:29.139Z,1.62
2022-09-26T15:33:19.743Z,1.80
2022-09-26T15:36:07.125Z,1.90
2022-09-26T15:38:54.414Z,1.50
2022-09-26T15:42:02.780Z,1.30
2022-09-26T15:44:58.125Z,1.42
2022-09-26T15:47:46.012Z,1.32
2022-09-26T15:50:40.218Z,1.30
2022-09-26T15:53:45.862Z,1.20
2022-09-26T15:56:44.925Z,1.50
2022-09-26T15:59:40.007Z,1.07
2022-09-26T16:02:28.117Z,1.05
2022-09-26T16:05:16.305Z,1.30
2022-09-26T16:08:03.824Z,1.07
2022-09-26T16:11:00.382Z,1.22
2022-09-26T16:13:50.021Z,1.40
2022-09-26T16:16:37.561Z,1.20
2022-09-26T16:19:31.438Z,1.42
2022-09-26T16:22:37.006Z,1.12
2022-09-26T16:25:34.308Z,1.17
2022-09-26T16:31:16.120Z,1.12
2022-09-26T16:34:05.359Z,1.00
2022-09-26T16:36:52.772Z,1.17
2022-09-26T16:39:41.145Z,1.30
2022-09-26T16:42:32.812Z,1.22
2022-09-26T16:45:20.689Z,1.10
2022-09-26T16:48:09.416Z,1.35
2022-09-26T16:51:17.673Z,1.17
2022-09-26T16:54:11.746Z,1.37
2022-09-26T16:56:58.786Z,1.27
2022-09-26T16:59:46.530Z,1.20
2022-09-26T17:02:35.663Z,1.40
2022-09-26T17:05:23.288Z,1.25
2022-09-26T17:08:11.600Z,1.70
2022-09-26T17:11:04.442Z,1.60
2022-09-26T17:13:51.834Z,1.75
2022-09-26T17:16:38.897Z,1.80
2022-09-26T17:19:29.556Z,1.70
2022-09-26T17:22:19.269Z,1.90
2022-09-26T17:25:07.463Z,1.70
2022-09-26T17:27:59.073Z,1.75
2022-09-26T17:30:47.805Z,1.72
2022-09-26T17:33:39.149Z,1.75
2022-09-26T17:36:28.823Z,2.05
2022-09-26T17:39:23.184Z,1.60
2022-09-26T17:42:11.215Z,1.70
2022-09-26T17:44:58.271Z,1.27
2022-09-26T17:47:45.659Z,1.40
2022-09-26T17:50:35.412Z,1.67
2022-09-26T17:53:24.310Z,1.80
2022-09-26T17:56:12.661Z,2.15
2022-09-26T17:59:00.156Z,1.95
2022-09-26T18:01:49.745Z,1.95
2022-09-26T18:04:37.162Z,2.25
2022-09-26T18:07:24.476Z,2.00
2022-09-26T18:10:15.321Z,2.10
2022-09-26T18:13:12.108Z,2.40
2022-09-26T18:15:58.447Z,2.22
2022-09-26T18:18:45.880Z,2.35
2022-09-26T18:21:34.874Z,2.33
2022-09-26T18:24:24.065Z,2.33
2022-09-26T18:27:14.641Z,2.30
2022-09-26T18:30:01.836Z,2.10
2022-09-26T18:32:52.946Z,2.22
2022-09-26T18:35:41.866Z,1.42
2022-09-26T18:38:28.885Z,1.52
2022-09-26T18:41:18.252Z,1.20
2022-09-26T18:44:07.706Z,1.30
2022-09-26T18:46:59.516Z,1.30
2022-09-26T18:49:46.595Z,1.30
2022-09-26T18:52:34.689Z,1.10
2022-09-26T18:55:42.799Z,1.30
2022-09-26T18:58:32.171Z,1.37
2022-09-26T19:01:28.415Z,1.30
2022-09-26T19:04:21.766Z,1.75
2022-09-26T19:07:12.994Z,1.30
2022-09-26T19:10:01.033Z,1.55
2022-09-26T19:12:48.357Z,1.90
2022-09-26T19:15:35.873Z,1.98
2022-09-26T19:18:23.069Z,2.30
2022-09-26T19:21:32.233Z,2.60
2022-09-26T19:24:22.579Z,2.58
2022-09-26T19:27:16.211Z,2.60
2022-09-26T19:30:09.742Z,2.30
2022-09-26T19:32:58.046Z,1.72
2022-09-26T19:35:47.046Z,2.00
2022-09-26T19:38:34.568Z,1.87
2022-09-26T19:41:22.154Z,1.98
2022-09-26T19:44:09.784Z,1.77
2022-09-26T19:46:59.033Z,2.22
2022-09-26T19:49:51.850Z,2.00
2022-09-26T19:52:39.353Z,2.20
2022-09-26T19:55:29.391Z,2.90
2022-09-26T19:58:19.868Z,2.45
2022-09-26T20:01:19.335Z,2.52
2022-09-26T20:04:15.122Z,1.62
2022-09-26T20:07:02.513Z,2.10
2022-09-26T20:09:56.753Z,1.70
2022-09-26T20:12:44.907Z,1.82
2022-09-26T20:15:32.984Z,1.98
2022-09-26T20:18:23.204Z,2.30
2022-09-26T20:21:12.926Z,1.70
2022-09-26T20:24:01.013Z,1.80
2022-09-26T20:26:48.928Z,1.75
2022-09-26T20:29:38.055Z,1.90
2022-09-26T20:32:26.057Z,2.10
2022-09-26T20:35:16.492Z,2.37
2022-09-26T20:38:07.185Z,1.92
2022-09-26T20:41:03.509Z,1.92
2022-09-26T20:43:55.446Z,1.97
2022-09-26T20:46:45.694Z,2.30
2022-09-26T20:49:36.022Z,1.82
2022-09-26T20:52:27.697Z,2.08
2022-09-26T20:55:18.027Z,1.90
2022-09-26T20:58:07.394Z,2.15
2022-09-26T21:00:54.967Z,1.85
2022-09-26T21:03:45.366Z,2.25
2022-09-26T21:06:34.957Z,1.82
2022-09-26T21:09:22.127Z,1.82
2022-09-26T21:12:14.909Z,1.70
2022-09-26T21:15:02.192Z,1.92
2022-09-26T21:17:50.955Z,1.65
2022-09-26T21:20:38.333Z,1.70
2022-09-26T21:23:25.684Z,1.90
2022-09-26T21:26:16.145Z,1.35
2022-09-26T21:29:06.078Z,1.40
2022-09-26T21:31:56.074Z,1.65
2022-09-26T21:34:45.096Z,1.90
2022-09-26T21:37:32.929Z,1.75
2022-09-26T21:40:22.138Z,1.47
2022-09-26T21:43:12.742Z,1.70
2022-09-26T21:46:00.139Z,1.40
2022-09-26T21:48:47.431Z,1.40
2022-09-26T21:51:36.287Z,1.62
2022-09-26T21:54:30.107Z,1.70
2022-09-26T21:57:26.044Z,1.50
2022-09-26T22:00:15.201Z,1.27
2022-09-26T22:03:02.632Z,1.60
2022-09-26T22:05:50.135Z,1.82
2022-09-26T22:08:39.232Z,1.67
2022-09-26T22:11:26.933Z,1.40
2022-09-26T22:14:14.253Z,1.67
2022-09-26T22:17:01.635Z,1.50
2022-09-26T22:19:50.977Z,1.57
2022-09-26T22:22:38.722Z,1.80
2022-09-26T22:25:25.959Z,1.32
2022-09-26T22:28:13.180Z,1.57
2022-09-26T22:31:05.020Z,1.42
2022-09-26T22:33:52.275Z,1.40
2022-09-26T22:36:39.636Z,1.40
2022-09-26T22:39:26.882Z,1.32
2022-09-26T22:42:14.547Z,1.15
2022-09-26T22:45:02.066Z,1.20
2022-09-26T22:47:49.606Z,1.30
2022-09-26T22:50:37.521Z,1.10
2022-09-26T22:53:25.064Z,1.37
2022-09-26T22:56:14.883Z,1.17
2022-09-26T22:59:03.718Z,1.35
2022-09-26T23:01:51.509Z,1.50
2022-09-26T23:04:47.950Z,1.25
2022-09-26T23:07:35.128Z,1.30
2022-09-26T23:10:22.646Z,1.35
2022-09-26T23:13:09.844Z,1.50
2022-09-26T23:15:57.122Z,1.27
2022-09-26T23:18:45.169Z,1.20
2022-09-26T23:21:32.472Z,1.15
2022-09-26T23:24:19.685Z,1.25
2022-09-26T23:27:07.166Z,1.12
2022-09-26T23:29:55.237Z,1.45
2022-09-26T23:32:42.600Z,1.30
2022-09-26T23:35:29.803Z,1.00
2022-09-26T23:38:17.332Z,1.20
2022-09-26T23:41:07.906Z,1.40
2022-09-26T23:43:55.013Z,1.20
2022-09-26T23:46:42.271Z,1.27
2022-09-26T23:49:29.944Z,1.27
2022-09-26T23:52:17.549Z,1.20
2022-09-26T23:55:05.032Z,1.25
2022-09-26T23:57:52.592Z,1.10
